createdAt,value
2017-09-28T00:00:26.812Z,457.0
2017-09-28T00:01:27.609Z,494.1
2017-09-28T00:02:28.334Z,507.2
2017-09-28T00:03:29.067Z,470.3
2017-09-28T00:04:29.795Z,472.1
2017-09-28T00:05:30.971Z,496.4
2017-09-28T00:06:31.691Z,456.1
2017-09-28T00:07:32.430Z,499.3
2017-09-28T00:08:33.170Z,489.6
2017-09-28T00:09:33.912Z,528.9
2017-09-28T00:10:35.125Z,498.0
2017-09-28T00:11:35.869Z,478.5
2017-09-28T00:12:36.640Z,433.0
2017-09-28T00:13:37.390Z,459.8
2017-09-28T00:14:38.181Z,476.0
2017-09-28T00:15:39.267Z,518.2
2017-09-28T00:16:39.996Z,501.0
2017-09-28T00:17:40.734Z,482.2
2017-09-28T00:18:41.468Z,490.5
2017-09-28T00:19:42.277Z,422.6
2017-09-28T00:20:43.481Z,499.0
2017-09-28T00:21:44.225Z,432.8
2017-09-28T00:22:44.955Z,494.9
2017-09-28T00:23:45.689Z,489.5
2017-09-28T00:24:46.485Z,513.5
2017-09-28T00:25:47.207Z,524.6
2017-09-28T00:26:47.987Z,555.0
2017-09-28T00:27:48.819Z,537.2
2017-09-28T00:28:49.614Z,562.9
2017-09-28T00:29:50.772Z,574.9
2017-09-28T00:30:51.793Z,504.6
2017-09-28T00:31:52.585Z,558.2
2017-09-28T00:32:53.312Z,554.9
2017-09-28T00:33:54.115Z,559.6
2017-09-28T00:34:54.836Z,581.0
2017-09-28T00:35:55.561Z,550.6
2017-09-28T00:36:56.484Z,490.9
2017-09-28T00:37:57.204Z,524.3
2017-09-28T00:38:57.927Z,532.6
2017-09-28T00:39:58.668Z,526.0
2017-09-28T00:40:59.466Z,491.7
2017-09-28T00:42:00.196Z,489.6
2017-09-28T00:43:01.327Z,510.8
2017-09-28T00:44:02.175Z,507.3
2017-09-28T00:45:02.956Z,504.9
2017-09-28T00:46:03.685Z,498.2
2017-09-28T00:47:04.425Z,524.8
2017-09-28T00:48:05.227Z,523.5
2017-09-28T00:49:06.314Z,506.5
2017-09-28T00:50:07.092Z,565.1
2017-09-28T00:51:07.837Z,547.7
2017-09-28T00:52:08.613Z,562.5
2017-09-28T00:53:09.426Z,552.6
2017-09-28T00:54:10.516Z,601.8
2017-09-28T00:55:11.251Z,580.3
2017-09-28T00:56:11.983Z,542.8
2017-09-28T00:57:12.786Z,574.4
2017-09-28T00:58:13.581Z,553.7
2017-09-28T00:59:14.768Z,535.6
2017-09-28T01:00:15.507Z,587.8
2017-09-28T01:01:16.283Z,597.1
2017-09-28T01:02:17.091Z,568.1
2017-09-28T01:03:17.862Z,546.5
2017-09-28T01:04:18.934Z,542.6
2017-09-28T01:05:19.677Z,534.2
2017-09-28T01:06:20.483Z,529.3
2017-09-28T01:07:21.218Z,532.5
2017-09-28T01:08:22.012Z,513.3
2017-09-28T01:09:23.152Z,531.4
2017-09-28T01:10:23.887Z,541.6
2017-09-28T01:11:24.706Z,523.6
2017-09-28T01:12:25.434Z,576.3
2017-09-28T01:13:26.168Z,527.8
2017-09-28T01:14:27.407Z,533.9
2017-09-28T01:15:28.493Z,579.7
2017-09-28T01:16:30.127Z,713.0
2017-09-28T01:17:31.379Z,612.5
2017-09-28T01:18:32.086Z,444.2
2017-09-28T01:19:33.856Z,587.6
2017-09-28T01:20:34.533Z,613.3
2017-09-28T01:21:35.277Z,540.3
2017-09-28T01:22:36.362Z,537.1
2017-09-28T01:23:37.092Z,481.6
2017-09-28T01:24:37.841Z,543.9
2017-09-28T01:25:38.589Z,593.3
2017-09-28T01:26:39.362Z,507.4
2017-09-28T01:27:40.343Z,505.0
2017-09-28T01:28:41.148Z,485.4
2017-09-28T01:29:41.894Z,513.9
2017-09-28T01:30:42.711Z,510.1
2017-09-28T01:31:43.480Z,515.4
2017-09-28T01:32:44.219Z,529.0
2017-09-28T01:33:45.354Z,506.5
2017-09-28T01:34:46.172Z,530.0
2017-09-28T01:35:46.914Z,543.5
2017-09-28T01:36:47.657Z,460.7
2017-09-28T01:37:48.435Z,530.2
2017-09-28T01:38:49.480Z,534.4
2017-09-28T01:39:50.213Z,514.9
2017-09-28T01:40:51.020Z,475.1
2017-09-28T01:41:51.822Z,525.5
2017-09-28T01:42:52.542Z,417.2
2017-09-28T01:43:53.528Z,529.6
2017-09-28T01:44:54.284Z,566.5
2017-09-28T01:45:55.081Z,543.2
2017-09-28T01:46:55.897Z,446.1
2017-09-28T01:47:56.639Z,536.5
2017-09-28T01:48:57.844Z,476.1
2017-09-28T01:49:58.621Z,488.8
2017-09-28T01:50:59.414Z,497.4
2017-09-28T01:52:00.217Z,497.6
2017-09-28T01:53:00.943Z,525.9
2017-09-28T01:54:01.973Z,470.6
2017-09-28T01:55:02.709Z,580.5
2017-09-28T01:56:03.392Z,602.2
2017-09-28T01:57:04.195Z,602.9
2017-09-28T01:58:04.976Z,681.2
2017-09-28T01:59:06.154Z,674.7
2017-09-28T02:00:06.952Z,719.8
2017-09-28T02:01:07.679Z,824.4
2017-09-28T02:02:08.432Z,785.7
2017-09-28T02:03:09.163Z,627.9
2017-09-28T02:04:10.305Z,612.2
2017-09-28T02:05:11.106Z,592.9
2017-09-28T02:06:11.863Z,560.8
2017-09-28T02:07:12.631Z,552.3
2017-09-28T02:08:13.374Z,555.1
2017-09-28T02:09:14.307Z,599.3
2017-09-28T02:10:15.055Z,605.8
2017-09-28T02:11:15.790Z,583.7
2017-09-28T02:12:16.523Z,617.0
2017-09-28T02:13:17.249Z,544.0
2017-09-28T02:14:18.389Z,626.6
2017-09-28T02:15:19.111Z,942.5
2017-09-28T02:16:19.848Z,847.6
2017-09-28T02:17:20.644Z,849.9
2017-09-28T02:18:21.383Z,653.7
2017-09-28T02:19:22.118Z,548.5
2017-09-28T02:20:22.908Z,1156.2
2017-09-28T02:21:23.834Z,771.4
2017-09-28T02:22:25.414Z,728.0
2017-09-28T02:23:26.088Z,605.0
2017-09-28T02:24:26.855Z,681.2
2017-09-28T02:25:27.595Z,606.9
2017-09-28T02:26:28.423Z,600.8
2017-09-28T02:27:29.181Z,591.5
2017-09-28T02:28:29.962Z,634.3
2017-09-28T02:29:30.693Z,619.7
2017-09-28T02:30:31.439Z,649.3
2017-09-28T02:31:32.574Z,669.4
2017-09-28T02:32:33.314Z,795.4
2017-09-28T02:33:34.045Z,832.1
2017-09-28T02:34:34.855Z,709.3
2017-09-28T02:35:35.588Z,652.4
2017-09-28T02:36:36.763Z,538.8
2017-09-28T02:37:37.545Z,592.4
2017-09-28T02:38:38.285Z,520.7
2017-09-28T02:39:39.013Z,462.9
2017-09-28T02:40:39.740Z,502.3
2017-09-28T02:41:40.830Z,447.7
2017-09-28T02:42:41.651Z,490.2
2017-09-28T02:43:42.452Z,483.6
2017-09-28T02:44:43.181Z,483.2
2017-09-28T02:45:43.904Z,424.6
2017-09-28T02:46:44.962Z,451.0
2017-09-28T02:47:45.751Z,451.5
2017-09-28T02:48:46.486Z,444.9
2017-09-28T02:49:47.293Z,422.3
2017-09-28T02:50:48.103Z,472.6
2017-09-28T02:51:49.062Z,405.4
2017-09-28T02:52:49.797Z,448.8
2017-09-28T02:53:50.530Z,388.6
2017-09-28T02:54:51.273Z,441.0
2017-09-28T02:55:52.011Z,456.7
2017-09-28T02:56:52.749Z,437.5
2017-09-28T02:57:53.881Z,417.2
2017-09-28T02:58:54.612Z,414.0
2017-09-28T02:59:55.340Z,500.4
2017-09-28T03:00:56.070Z,492.5
2017-09-28T03:01:56.805Z,443.5
2017-09-28T03:02:57.581Z,438.4
2017-09-28T03:03:58.611Z,444.1
2017-09-28T03:04:59.435Z,456.4
2017-09-28T03:06:00.120Z,451.5
2017-09-28T03:07:00.902Z,495.3
2017-09-28T03:08:01.721Z,494.1
2017-09-28T03:09:02.752Z,468.9
2017-09-28T03:10:03.538Z,520.4
2017-09-28T03:11:04.270Z,623.2
2017-09-28T03:12:05.071Z,656.7
2017-09-28T03:13:05.790Z,626.7
2017-09-28T03:14:06.814Z,532.6
2017-09-28T03:15:07.555Z,503.7
2017-09-28T03:16:08.331Z,477.4
2017-09-28T03:17:09.061Z,505.5
2017-09-28T03:18:09.781Z,490.8
2017-09-28T03:19:10.819Z,526.7
2017-09-28T03:20:11.611Z,462.3
2017-09-28T03:21:12.347Z,439.1
2017-09-28T03:22:13.081Z,483.0
2017-09-28T03:23:13.804Z,492.3
2017-09-28T03:24:14.830Z,422.2
2017-09-28T03:25:15.579Z,401.7
2017-09-28T03:26:16.315Z,469.5
2017-09-28T03:27:17.051Z,426.1
2017-09-28T03:28:17.785Z,475.1
2017-09-28T03:29:18.914Z,435.1
2017-09-28T03:30:19.712Z,439.1
2017-09-28T03:31:20.442Z,485.4
2017-09-28T03:32:21.182Z,465.0
2017-09-28T03:33:21.981Z,479.6
2017-09-28T03:34:22.710Z,433.6
2017-09-28T03:35:23.453Z,452.7
2017-09-28T03:36:24.190Z,478.5
2017-09-28T03:37:24.922Z,470.5
2017-09-28T03:38:25.924Z,457.8
2017-09-28T03:39:26.703Z,482.4
2017-09-28T03:40:27.438Z,512.1
2017-09-28T03:41:28.222Z,480.7
2017-09-28T03:42:29.030Z,493.6
2017-09-28T03:43:30.062Z,519.1
2017-09-28T03:44:30.787Z,454.1
2017-09-28T03:45:31.522Z,549.5
2017-09-28T03:46:32.341Z,510.6
2017-09-28T03:47:33.142Z,480.3
2017-09-28T03:48:33.937Z,860.8
2017-09-28T03:49:34.725Z,681.3
2017-09-28T03:50:35.935Z,504.9
2017-09-28T03:51:36.682Z,521.6
2017-09-28T03:52:37.460Z,521.6
2017-09-28T03:53:38.214Z,540.4
2017-09-28T03:54:39.004Z,568.7
2017-09-28T03:55:40.103Z,531.3
2017-09-28T03:56:40.919Z,597.7
2017-09-28T03:57:41.659Z,728.9
2017-09-28T03:58:42.395Z,650.6
2017-09-28T03:59:43.139Z,649.6
2017-09-28T04:00:44.275Z,675.4
2017-09-28T04:01:44.955Z,645.3
2017-09-28T04:02:45.747Z,590.8
2017-09-28T04:03:46.481Z,816.5
2017-09-28T04:04:47.210Z,730.8
2017-09-28T04:05:48.241Z,629.9
2017-09-28T04:06:49.047Z,629.5
2017-09-28T04:07:49.839Z,644.5
2017-09-28T04:08:50.584Z,569.9
2017-09-28T04:09:51.361Z,574.2
2017-09-28T04:10:52.391Z,609.5
2017-09-28T04:11:53.125Z,560.9
2017-09-28T04:12:53.863Z,522.1
2017-09-28T04:13:54.600Z,542.4
2017-09-28T04:14:55.342Z,508.0
2017-09-28T04:15:56.485Z,515.0
2017-09-28T04:16:57.261Z,523.7
2017-09-28T04:17:58.062Z,521.0
2017-09-28T04:18:58.801Z,611.0
2017-09-28T04:19:59.554Z,573.0
2017-09-28T04:21:00.320Z,475.5
2017-09-28T04:22:01.063Z,487.1
2017-09-28T04:23:01.836Z,458.1
2017-09-28T04:24:02.992Z,498.3
2017-09-28T04:25:03.811Z,514.2
2017-09-28T04:26:04.531Z,483.2
2017-09-28T04:27:05.260Z,499.1
2017-09-28T04:28:06.002Z,502.7
2017-09-28T04:29:07.108Z,486.2
2017-09-28T04:30:07.841Z,576.0
2017-09-28T04:31:08.634Z,625.7
2017-09-28T04:32:09.432Z,585.3
2017-09-28T04:33:10.142Z,556.3
2017-09-28T04:34:10.971Z,483.4
2017-09-28T04:35:11.705Z,508.4
2017-09-28T04:36:13.452Z,521.8
2017-09-28T04:37:14.269Z,465.9
2017-09-28T04:38:14.991Z,477.2
2017-09-28T04:39:15.791Z,480.8
2017-09-28T04:40:16.520Z,460.8
2017-09-28T04:41:17.256Z,494.2
2017-09-28T04:42:18.446Z,563.7
2017-09-28T04:43:19.176Z,545.4
2017-09-28T04:44:19.911Z,497.3
2017-09-28T04:45:20.650Z,487.2
2017-09-28T04:46:21.371Z,472.6
2017-09-28T04:47:22.113Z,484.4
2017-09-28T04:48:23.244Z,469.4
2017-09-28T04:49:23.987Z,470.8
2017-09-28T04:50:24.760Z,483.5
2017-09-28T04:51:25.494Z,478.2
2017-09-28T04:52:26.221Z,472.0
2017-09-28T04:53:27.400Z,451.1
2017-09-28T04:54:28.132Z,470.5
2017-09-28T04:55:28.865Z,476.9
2017-09-28T04:56:29.593Z,491.4
2017-09-28T04:57:30.326Z,460.1
2017-09-28T04:58:31.070Z,412.3
2017-09-28T04:59:31.815Z,490.0
2017-09-28T05:00:32.849Z,486.0
2017-09-28T05:01:33.584Z,445.4
2017-09-28T05:02:34.318Z,569.2
2017-09-28T05:03:35.063Z,501.9
2017-09-28T05:04:35.790Z,603.6
2017-09-28T05:05:36.525Z,592.4
2017-09-28T05:06:37.616Z,606.3
2017-09-28T05:07:38.410Z,576.4
2017-09-28T05:08:39.125Z,528.8
2017-09-28T05:09:39.860Z,536.4
2017-09-28T05:10:40.601Z,562.9
2017-09-28T05:11:42.198Z,539.5
2017-09-28T05:12:42.970Z,474.1
2017-09-28T05:13:43.706Z,448.7
2017-09-28T05:14:44.528Z,460.3
2017-09-28T05:15:45.343Z,500.5
2017-09-28T05:16:46.418Z,485.9
2017-09-28T05:17:47.205Z,487.2
2017-09-28T05:18:48.011Z,475.7
2017-09-28T05:19:48.756Z,497.4
2017-09-28T05:20:49.482Z,482.9
2017-09-28T05:21:50.621Z,513.1
2017-09-28T05:22:51.374Z,536.8
2017-09-28T05:23:52.191Z,505.7
2017-09-28T05:24:52.950Z,549.7
2017-09-28T05:25:53.760Z,538.0
2017-09-28T05:26:54.915Z,616.5
2017-09-28T05:27:55.710Z,561.2
2017-09-28T05:28:56.444Z,533.2
2017-09-28T05:29:57.177Z,507.0
2017-09-28T05:30:57.930Z,516.2
2017-09-28T05:31:59.119Z,516.4
2017-09-28T05:32:59.873Z,543.4
2017-09-28T05:34:00.677Z,509.6
2017-09-28T05:35:01.402Z,499.6
2017-09-28T05:36:02.209Z,560.3
2017-09-28T05:37:03.287Z,534.0
2017-09-28T05:38:04.021Z,537.7
2017-09-28T05:39:04.752Z,503.9
2017-09-28T05:40:05.569Z,532.7
2017-09-28T05:41:06.310Z,507.2
2017-09-28T05:42:07.451Z,571.9
2017-09-28T05:43:08.265Z,539.8
2017-09-28T05:44:09.050Z,569.9
2017-09-28T05:45:09.789Z,524.1
2017-09-28T05:46:10.531Z,495.2
2017-09-28T05:47:11.321Z,420.2
2017-09-28T05:48:12.060Z,494.0
2017-09-28T05:49:12.812Z,413.0
2017-09-28T05:50:13.870Z,450.1
2017-09-28T05:51:14.618Z,444.8
2017-09-28T05:52:15.450Z,445.0
2017-09-28T05:53:16.242Z,454.5
2017-09-28T05:54:17.051Z,488.3
2017-09-28T05:55:18.094Z,473.7
2017-09-28T05:56:18.833Z,493.5
2017-09-28T05:57:19.570Z,467.4
2017-09-28T05:58:20.316Z,478.6
2017-09-28T05:59:21.125Z,486.8
2017-09-28T06:00:22.210Z,516.6
2017-09-28T06:01:22.945Z,486.8
2017-09-28T06:02:23.690Z,490.0
2017-09-28T06:03:24.441Z,472.6
2017-09-28T06:04:25.181Z,471.3
2017-09-28T06:05:26.161Z,490.7
2017-09-28T06:06:26.901Z,500.4
2017-09-28T06:07:27.645Z,494.2
2017-09-28T06:08:28.480Z,479.6
2017-09-28T06:09:29.216Z,444.5
2017-09-28T06:10:30.423Z,522.2
2017-09-28T06:11:31.230Z,513.0
2017-09-28T06:12:31.964Z,500.5
2017-09-28T06:13:32.781Z,530.9
2017-09-28T06:14:33.522Z,620.9
2017-09-28T06:15:34.561Z,574.6
2017-09-28T06:16:35.311Z,544.9
2017-09-28T06:17:36.061Z,532.2
2017-09-28T06:18:36.800Z,578.7
2017-09-28T06:19:37.536Z,559.5
2017-09-28T06:20:38.346Z,501.4
2017-09-28T06:21:39.343Z,488.1
2017-09-28T06:22:40.150Z,503.2
2017-09-28T06:23:40.889Z,503.1
2017-09-28T06:24:41.722Z,472.1
2017-09-28T06:25:42.511Z,470.0
2017-09-28T06:26:43.497Z,457.8
2017-09-28T06:27:44.232Z,529.3
2017-09-28T06:28:45.044Z,482.2
2017-09-28T06:29:45.771Z,506.8
2017-09-28T06:30:46.503Z,543.6
2017-09-28T06:31:47.189Z,513.1
2017-09-28T06:32:48.347Z,521.0
2017-09-28T06:33:49.144Z,459.4
2017-09-28T06:34:49.954Z,480.4
2017-09-28T06:35:50.740Z,488.7
2017-09-28T06:36:51.491Z,487.9
2017-09-28T06:37:52.661Z,501.9
2017-09-28T06:38:53.903Z,505.5
2017-09-28T06:39:55.726Z,481.7
2017-09-28T06:40:57.888Z,518.9
2017-09-28T06:41:59.954Z,503.6
2017-09-28T06:43:01.949Z,519.5
2017-09-28T06:44:04.943Z,544.8
2017-09-28T06:45:06.460Z,551.0
2017-09-28T06:46:07.201Z,547.2
2017-09-28T06:47:08.010Z,577.6
2017-09-28T06:48:08.750Z,513.7
2017-09-28T06:49:09.500Z,504.0
2017-09-28T06:50:10.663Z,480.2
2017-09-28T06:51:11.452Z,491.3
2017-09-28T06:52:12.283Z,422.8
2017-09-28T06:53:13.087Z,533.1
2017-09-28T06:54:13.827Z,534.9
2017-09-28T06:55:14.910Z,545.2
2017-09-28T06:56:15.648Z,548.1
2017-09-28T06:57:16.434Z,608.5
2017-09-28T06:58:17.181Z,620.9
2017-09-28T06:59:17.931Z,638.3
2017-09-28T07:00:18.872Z,585.6
2017-09-28T07:01:19.684Z,547.2
2017-09-28T07:02:20.420Z,583.3
2017-09-28T07:03:21.157Z,580.1
2017-09-28T07:04:21.910Z,516.1
2017-09-28T07:05:22.951Z,495.8
2017-09-28T07:06:23.730Z,602.5
2017-09-28T07:07:24.470Z,561.1
2017-09-28T07:08:25.211Z,533.3
2017-09-28T07:09:26.026Z,601.3
2017-09-28T07:10:27.212Z,526.4
2017-09-28T07:11:28.020Z,573.1
2017-09-28T07:12:28.770Z,512.1
2017-09-28T07:13:29.511Z,570.3
2017-09-28T07:14:30.248Z,489.5
2017-09-28T07:15:31.051Z,528.7
2017-09-28T07:16:32.041Z,528.1
2017-09-28T07:17:32.785Z,536.8
2017-09-28T07:18:33.611Z,534.0
2017-09-28T07:19:34.344Z,557.2
2017-09-28T07:20:35.083Z,556.0
2017-09-28T07:21:36.120Z,558.6
2017-09-28T07:22:36.859Z,479.9
2017-09-28T07:23:37.668Z,438.1
2017-09-28T07:24:38.463Z,467.8
2017-09-28T07:25:39.300Z,558.2
2017-09-28T07:26:40.030Z,537.8
2017-09-28T07:27:40.771Z,513.6
2017-09-28T07:28:41.591Z,596.2
2017-09-28T07:29:42.331Z,535.3
2017-09-28T07:30:43.089Z,534.7
2017-09-28T07:31:44.205Z,543.8
2017-09-28T07:32:44.998Z,525.0
2017-09-28T07:33:45.733Z,533.4
2017-09-28T07:34:46.480Z,539.7
2017-09-28T07:35:47.220Z,499.1
2017-09-28T07:36:48.302Z,528.8
2017-09-28T07:37:49.121Z,535.7
2017-09-28T07:38:49.869Z,510.4
2017-09-28T07:39:50.616Z,536.0
2017-09-28T07:40:51.370Z,560.3
2017-09-28T07:41:52.310Z,559.6
2017-09-28T07:42:53.049Z,474.9
2017-09-28T07:43:53.852Z,531.2
2017-09-28T07:44:54.675Z,546.6
2017-09-28T07:45:55.470Z,551.5
2017-09-28T07:46:56.504Z,514.2
2017-09-28T07:47:57.254Z,527.0
2017-09-28T07:48:58.020Z,520.5
2017-09-28T07:49:58.761Z,532.0
2017-09-28T07:50:59.580Z,497.6
2017-09-28T07:52:00.321Z,465.5
2017-09-28T07:53:01.460Z,534.1
2017-09-28T07:54:02.194Z,506.7
2017-09-28T07:55:03.037Z,518.7
2017-09-28T07:56:03.770Z,478.6
2017-09-28T07:57:04.515Z,488.6
2017-09-28T07:58:05.559Z,513.9
2017-09-28T07:59:06.281Z,519.2
2017-09-28T08:00:07.063Z,546.5
2017-09-28T08:01:07.797Z,490.1
2017-09-28T08:02:08.601Z,503.0
2017-09-28T08:03:09.720Z,473.2
2017-09-28T08:04:10.529Z,527.4
2017-09-28T08:05:11.269Z,464.6
2017-09-28T08:06:12.410Z,476.0
2017-09-28T08:07:13.146Z,517.7
2017-09-28T08:08:13.890Z,481.3
2017-09-28T08:09:14.635Z,485.7
2017-09-28T08:10:15.466Z,456.8
2017-09-28T08:11:16.582Z,470.9
2017-09-28T08:12:17.333Z,447.9
2017-09-28T08:13:18.075Z,494.2
2017-09-28T08:14:18.824Z,468.5
2017-09-28T08:15:19.601Z,456.5
2017-09-28T08:16:21.221Z,451.8
2017-09-28T08:17:21.964Z,449.0
2017-09-28T08:18:22.701Z,447.6
2017-09-28T08:19:23.540Z,440.0
2017-09-28T08:20:24.297Z,436.0
2017-09-28T08:21:25.424Z,414.9
2017-09-28T08:22:26.236Z,449.6
2017-09-28T08:23:26.981Z,457.7
2017-09-28T08:24:27.736Z,460.4
2017-09-28T08:25:28.471Z,468.3
2017-09-28T08:26:29.600Z,486.6
2017-09-28T08:27:30.351Z,430.5
2017-09-28T08:28:31.163Z,435.3
2017-09-28T08:29:31.950Z,402.0
2017-09-28T08:30:32.689Z,435.7
2017-09-28T08:31:33.685Z,425.5
2017-09-28T08:32:34.493Z,430.8
2017-09-28T08:33:35.241Z,436.6
2017-09-28T08:34:36.050Z,444.7
2017-09-28T08:35:36.780Z,427.7
2017-09-28T08:36:37.967Z,457.1
2017-09-28T08:37:38.716Z,458.3
2017-09-28T08:38:39.460Z,450.8
2017-09-28T08:39:40.192Z,441.8
2017-09-28T08:40:40.923Z,412.6
2017-09-28T08:41:41.906Z,418.7
2017-09-28T08:42:42.744Z,462.8
2017-09-28T08:43:43.508Z,443.7
2017-09-28T08:44:44.289Z,434.3
2017-09-28T08:45:45.028Z,429.3
2017-09-28T08:46:45.767Z,433.9
2017-09-28T08:47:46.520Z,421.7
2017-09-28T08:48:47.263Z,447.5
2017-09-28T08:49:48.389Z,425.9
2017-09-28T08:50:49.199Z,455.4
2017-09-28T08:51:49.951Z,432.5
2017-09-28T08:52:50.750Z,427.8
2017-09-28T08:53:51.480Z,442.1
2017-09-28T08:54:52.520Z,410.3
2017-09-28T08:55:53.340Z,429.4
2017-09-28T08:56:54.079Z,453.5
2017-09-28T08:57:54.820Z,385.8
2017-09-28T08:58:55.607Z,430.1
2017-09-28T08:59:56.794Z,398.3
2017-09-28T09:00:57.530Z,434.1
2017-09-28T09:01:58.279Z,427.4
2017-09-28T09:02:59.020Z,452.3
2017-09-28T09:03:59.760Z,446.7
2017-09-28T09:05:00.701Z,440.3
2017-09-28T09:06:01.547Z,431.7
2017-09-28T09:07:02.285Z,412.9
2017-09-28T09:08:03.038Z,407.8
2017-09-28T09:09:03.830Z,440.0
2017-09-28T09:10:04.831Z,367.3
2017-09-28T09:11:05.585Z,366.0
2017-09-28T09:12:06.400Z,412.8
2017-09-28T09:13:07.141Z,412.9
2017-09-28T09:14:07.942Z,393.4
2017-09-28T09:15:09.031Z,351.9
2017-09-28T09:16:09.772Z,369.7
2017-09-28T09:17:10.516Z,416.3
2017-09-28T09:18:11.320Z,358.0
2017-09-28T09:19:12.131Z,369.5
2017-09-28T09:20:13.070Z,344.7
2017-09-28T09:21:13.829Z,340.2
2017-09-28T09:22:14.648Z,352.6
2017-09-28T09:23:15.398Z,344.3
2017-09-28T09:24:16.135Z,328.4
2017-09-28T09:25:17.219Z,359.5
2017-09-28T09:26:17.961Z,309.1
2017-09-28T09:27:18.779Z,294.0
2017-09-28T09:28:19.531Z,292.1
2017-09-28T09:29:20.270Z,266.4
2017-09-28T09:30:21.212Z,269.4
2017-09-28T09:31:22.031Z,275.3
2017-09-28T09:32:22.819Z,239.5
2017-09-28T09:33:23.558Z,230.8
2017-09-28T09:34:24.296Z,222.9
2017-09-28T09:35:25.389Z,210.6
2017-09-28T09:36:26.130Z,198.4
2017-09-28T09:37:26.890Z,210.5
2017-09-28T09:38:27.630Z,209.3
2017-09-28T09:39:28.370Z,206.1
2017-09-28T09:40:29.820Z,197.0
2017-09-28T09:41:30.653Z,202.6
2017-09-28T09:42:31.465Z,190.5
2017-09-28T09:43:32.279Z,189.1
2017-09-28T09:44:33.015Z,187.4
2017-09-28T09:45:34.050Z,179.9
2017-09-28T09:46:34.799Z,192.7
2017-09-28T09:47:35.539Z,184.5
2017-09-28T09:48:36.288Z,155.3
2017-09-28T09:49:37.036Z,147.3
2017-09-28T09:50:38.162Z,140.6
2017-09-28T09:51:39.000Z,131.7
2017-09-28T09:52:39.745Z,128.1
2017-09-28T09:53:40.490Z,120.5
2017-09-28T09:54:41.302Z,129.7
2017-09-28T09:55:42.430Z,142.7
2017-09-28T09:56:43.389Z,142.7
2017-09-28T09:57:44.130Z,136.4
2017-09-28T09:58:44.877Z,132.8
2017-09-28T09:59:45.645Z,142.2
2017-09-28T10:00:46.432Z,146.7
2017-09-28T10:01:47.162Z,143.9
2017-09-28T10:02:48.164Z,139.4
2017-09-28T10:03:48.952Z,131.2
2017-09-28T10:04:49.766Z,123.2
2017-09-28T10:05:50.506Z,120.8
2017-09-28T10:06:51.236Z,119.3
2017-09-28T10:07:52.333Z,109.8
2017-09-28T10:08:53.064Z,111.0
2017-09-28T10:09:53.815Z,101.6
2017-09-28T10:10:54.550Z,99.6
2017-09-28T10:11:55.364Z,92.4
2017-09-28T10:12:56.450Z,100.7
2017-09-28T10:13:57.189Z,86.3
2017-09-28T10:14:57.929Z,92.2
2017-09-28T10:15:58.671Z,90.8
2017-09-28T10:16:59.419Z,91.3
2017-09-28T10:18:00.442Z,88.5
2017-09-28T10:19:01.251Z,88.2
2017-09-28T10:20:01.991Z,82.8
2017-09-28T10:21:02.729Z,84.9
2017-09-28T10:22:03.475Z,90.2
2017-09-28T10:23:04.671Z,80.7
2017-09-28T10:24:05.419Z,78.2
2017-09-28T10:25:06.197Z,68.7
2017-09-28T10:26:06.941Z,72.4
2017-09-28T10:27:07.690Z,68.1
2017-09-28T10:28:08.633Z,65.1
2017-09-28T10:29:09.425Z,60.9
2017-09-28T10:30:10.174Z,74.3
2017-09-28T10:31:10.914Z,65.1
2017-09-28T10:32:11.729Z,59.9
2017-09-28T10:33:12.825Z,64.9
2017-09-28T10:34:13.570Z,61.5
2017-09-28T10:35:14.324Z,56.5
2017-09-28T10:36:15.107Z,56.3
2017-09-28T10:37:15.842Z,55.5
2017-09-28T10:38:17.003Z,54.5
2017-09-28T10:39:17.749Z,57.0
2017-09-28T10:40:18.560Z,60.6
2017-09-28T10:41:19.296Z,65.0
2017-09-28T10:42:20.126Z,58.0
2017-09-28T10:43:21.782Z,68.4
2017-09-28T10:44:22.479Z,61.8
2017-09-28T10:45:23.338Z,66.3
2017-09-28T10:46:24.114Z,59.3
2017-09-28T10:47:24.873Z,58.9
2017-09-28T10:48:25.914Z,54.7
2017-09-28T10:49:26.731Z,56.2
2017-09-28T10:50:27.474Z,55.7
2017-09-28T10:51:28.206Z,54.6
2017-09-28T10:52:28.952Z,57.3
2017-09-28T10:53:30.111Z,50.9
2017-09-28T10:54:30.931Z,54.3
2017-09-28T10:55:31.665Z,54.2
2017-09-28T10:56:32.400Z,61.1
2017-09-28T10:57:33.151Z,58.4
2017-09-28T10:58:33.890Z,65.4
2017-09-28T10:59:34.649Z,57.9
2017-09-28T11:00:35.392Z,53.8
2017-09-28T11:01:36.776Z,65.9
2017-09-28T11:02:37.459Z,53.4
2017-09-28T11:03:38.215Z,56.5
2017-09-28T11:04:38.953Z,58.2
2017-09-28T11:05:39.696Z,58.2
2017-09-28T11:06:40.792Z,59.8
2017-09-28T11:07:41.600Z,55.3
2017-09-28T11:08:42.340Z,58.4
2017-09-28T11:09:43.112Z,59.2
2017-09-28T11:10:43.895Z,56.2
2017-09-28T11:11:44.954Z,62.8
2017-09-28T11:12:45.699Z,63.0
2017-09-28T11:13:46.440Z,54.5
2017-09-28T11:14:48.218Z,51.2
2017-09-28T11:15:49.231Z,45.4
2017-09-28T11:16:50.385Z,50.2
2017-09-28T11:17:51.191Z,51.8
2017-09-28T11:18:52.014Z,52.3
2017-09-28T11:19:52.807Z,51.5
2017-09-28T11:20:53.556Z,48.9
2017-09-28T11:21:54.740Z,55.3
2017-09-28T11:22:55.462Z,47.2
2017-09-28T11:23:56.211Z,50.2
2017-09-28T11:24:56.952Z,50.3
2017-09-28T11:25:57.769Z,54.2
2017-09-28T11:26:58.826Z,51.9
2017-09-28T11:27:59.639Z,49.3
2017-09-28T11:29:00.386Z,50.5
2017-09-28T11:30:01.161Z,45.1
2017-09-28T11:31:01.990Z,46.2
2017-09-28T11:32:03.131Z,45.2
2017-09-28T11:33:03.871Z,43.0
2017-09-28T11:34:04.632Z,44.5
2017-09-28T11:35:05.380Z,42.9
2017-09-28T11:36:06.129Z,43.1
2017-09-28T11:37:07.678Z,40.6
2017-09-28T11:38:08.420Z,46.0
2017-09-28T11:39:09.161Z,41.2
2017-09-28T11:40:09.955Z,40.5
2017-09-28T11:41:10.703Z,43.0
2017-09-28T11:42:11.790Z,40.2
2017-09-28T11:43:12.542Z,44.1
2017-09-28T11:44:13.280Z,45.4
2017-09-28T11:45:14.021Z,42.2
2017-09-28T11:46:14.829Z,37.7
2017-09-28T11:47:15.930Z,41.2
2017-09-28T11:48:16.671Z,45.1
2017-09-28T11:49:17.416Z,38.6
2017-09-28T11:50:18.220Z,42.5
2017-09-28T11:51:18.961Z,37.5
2017-09-28T11:52:20.090Z,38.6
2017-09-28T11:53:20.830Z,35.1
2017-09-28T11:54:21.572Z,35.6
2017-09-28T11:55:22.391Z,38.4
2017-09-28T11:56:23.142Z,34.0
2017-09-28T11:57:24.332Z,36.9
2017-09-28T11:58:25.170Z,35.9
2017-09-28T11:59:25.956Z,37.6
2017-09-28T12:00:26.698Z,37.9
2017-09-28T12:01:27.491Z,36.8
2017-09-28T12:02:28.606Z,35.0
2017-09-28T12:03:29.349Z,31.9
2017-09-28T12:04:30.133Z,37.2
2017-09-28T12:05:30.922Z,35.2
2017-09-28T12:06:31.668Z,47.7
2017-09-28T12:07:32.820Z,32.7
2017-09-28T12:08:33.562Z,37.1
2017-09-28T12:09:34.376Z,34.0
2017-09-28T12:10:35.146Z,38.9
2017-09-28T12:11:35.942Z,41.0
2017-09-28T12:12:37.097Z,35.0
2017-09-28T12:13:37.885Z,38.1
2017-09-28T12:14:38.715Z,36.5
2017-09-28T12:15:39.460Z,35.5
2017-09-28T12:16:40.274Z,35.3
2017-09-28T12:17:41.482Z,42.1
2017-09-28T12:18:42.214Z,38.0
2017-09-28T12:19:42.958Z,40.8
2017-09-28T12:20:43.691Z,39.7
2017-09-28T12:21:44.442Z,36.4
2017-09-28T12:22:45.549Z,37.6
2017-09-28T12:23:46.295Z,34.4
2017-09-28T12:24:47.107Z,37.8
2017-09-28T12:25:47.844Z,33.0
2017-09-28T12:26:48.599Z,31.9
2017-09-28T12:27:49.813Z,37.7
2017-09-28T12:28:50.640Z,33.6
2017-09-28T12:29:51.398Z,32.6
2017-09-28T12:30:52.209Z,33.4
2017-09-28T12:31:52.958Z,31.6
2017-09-28T12:32:53.708Z,29.4
2017-09-28T12:33:54.460Z,33.4
2017-09-28T12:34:55.211Z,29.0
2017-09-28T12:35:56.426Z,30.5
2017-09-28T12:36:57.254Z,30.2
2017-09-28T12:37:58.002Z,32.6
2017-09-28T12:38:58.791Z,32.3
2017-09-28T12:39:59.545Z,30.6
2017-09-28T12:41:00.670Z,29.6
2017-09-28T12:42:01.454Z,33.2
2017-09-28T12:43:02.277Z,34.3
2017-09-28T12:44:03.082Z,31.3
2017-09-28T12:45:03.880Z,32.5
2017-09-28T12:46:04.628Z,32.6
2017-09-28T12:47:05.442Z,28.5
2017-09-28T12:48:06.650Z,31.7
2017-09-28T12:49:07.496Z,28.5
2017-09-28T12:50:09.312Z,29.2
2017-09-28T12:51:10.359Z,33.0
2017-09-28T12:52:11.191Z,26.7
2017-09-28T12:53:12.232Z,33.5
2017-09-28T12:54:13.031Z,32.4
2017-09-28T12:55:13.844Z,27.8
2017-09-28T12:56:14.647Z,28.7
2017-09-28T12:57:15.389Z,30.0
2017-09-28T12:58:16.490Z,29.9
2017-09-28T12:59:17.234Z,29.4
2017-09-28T13:00:18.031Z,34.0
2017-09-28T13:01:18.772Z,29.1
2017-09-28T13:02:19.580Z,30.5
2017-09-28T13:03:20.529Z,29.5
2017-09-28T13:04:21.272Z,30.2
2017-09-28T13:05:22.020Z,29.7
2017-09-28T13:06:22.760Z,32.9
2017-09-28T13:07:23.987Z,33.5
2017-09-28T13:08:24.985Z,33.4
2017-09-28T13:09:25.735Z,31.4